Rechercher aéroport 
image banner adimage banner adimage banner ad
image banner ad

CL19 - Bank Of America Glendale

Situé à Glendale, United States

ICAO - CL19, IATA -

Données fournies par Airmate  

Information générale

Coordonnées: N34°9'19" W118°15'25"
Élévation : 560 feet MSL.
Variation magnétique : 14° East
Voir autres Aéroports à California

Données opérationnelles

Special qualification required
Heure actuelle UTC:
Heure actuelle locale:
Météo à : KBUR - Bob Hope ( 11 km )
METAR: KBUR 251153Z 15003KT 10SM CLR 19/16 A2996 RMK AO2 SLP131 T01890156 10200 20189 56005 $
TAF: KBUR 251158Z 2512/2612 13006KT P6SM BKN150 FM251900 18010KT P6SM BKN120 FM260400 14006KT P6SM BKN120 FM260900 VRB03KT P6SM VCSH OVC100
Voir NOTAMs / SUP AIP / TFR affectant cet aéroport [VIEW]
Fréquences de communication: [VIEW]

Pistes:

Coordonnées de l'aéroport

Adresse: Glendale United States

Vue satellite de CL19